Jack Mc Namara Field Airport
KCEC : now visible

Airfield :











YOU CAN JOIN US ON...

 
LOGIN :

Register | Disclaimer

   EN    FR    IT 

 









Legend :    VFR   Marginal VFR   IFR   Intensive IFR   Very Intensive IFR
Visi :
Ceiling :
>= 8 km
>= 3000ft
5 to 8 km
1000 to 3000 ft
1500m to 5 km
500 to 1000 ft
800 to 1500m
200 to 500 ft
< 800m
< 200 ft
Symbols :   Thunderstorms  Fog  Heavy snow  Heavy precipitations  Wind > 20 kt






- Airport Elevation : 61 ft
- IATA code : CEC


KCEC - Jack Mc Namara Field

CURRENT METAR :
  • 191956Z AUTO 34006KT 10SM CLR 17/14 A3017 RMK AO2 SLP214 T01720139

EXPIRED METARs :
  • 191856Z AUTO 29006KT 10SM CLR 16/14 A3017 RMK AO2 SLP216 T01610139
  • 191756Z AUTO 31005KT 10SM CLR 16/14 A3017 RMK AO2 SLP216 T01560139 10156 20111 50001
  • 191727Z AUTO VRB05KT 10SM FEW004 15/13 A3017 RMK AO2 T01500133
  • 191656Z AUTO 28005KT 10SM CLR 14/13 A3017 RMK AO2 SLP217 T01440133
  • 191621Z AUTO 31004KT 10SM SCT002 14/13 A3017 RMK AO2 T01390133
  • 191556Z AUTO 31004KT 3SM BR OVC002 13/13 A3017 RMK AO2 SLP216 T01330133
  • 191544Z AUTO 32003KT 3/4SM BR VV002 13/13 A3017 RMK AO2 T01330133

TAF KCEC
Valid from the 19 at 18:00 until the 20 at 18:00 UTC


191859Z 1918/2018 30010KT P6SM SCT004
TEMPO 1918/1919 BKN004
FM200300 30006KT 3/4SM BR BKN003
FM200600 18005KT 1/4SM FG OVC003
FM201200 VRB05KT 1/4SM FG OVC002
KZSE FIR / North America



MET'MAP, your aeronautical weather chart ! - Copyright ORBIFLY December 2007 - Disclaimer

ORBIFLY MET'MAP TEAM :

Programming & Development : Alexandra Zaïnal
Original concept : Baudouin d'Aumeries
Technical & hardware support : Manuel Goepfert
Assistance : Marc-Olivier Méhu




SOURCES & CREDITS :

   NOAA       Earth
Advisory